Terminal Aerodrome Forecast
Issued by NWS

Home | Current Version | Previous Version | Graphics & Text | Print | Product List | Glossary On
Versions: 1 2 3 4 5 6 7 8 9 10 11 12 13 14 15 16 17 18 19 20 21
971
FTUS43 KABR 202327
TAFMBG
TAF
KMBG 202327Z 2100/2124 15014G21KT P6SM FEW250
     FM210500 16011KT P6SM -SHRA SCT060 BKN100
     FM210900 18009KT P6SM BKN120
     FM211300 16005KT P6SM SCT250
     FM211700 34007KT P6SM SCT150=

USA.gov is the U.S. government's official web portal to all federal, state and local government web resources and services.